Time;durP1;ratioP1;P1;durP2;ratioP2;P2;SDS_P1;SDS_P2;PMS_P1;PMS_P2;Temp;Humidity;BMP_temperature;BMP_pressure;BME280_temperature;BME280_humidity;BME280_pressure;Samples;Min_cycle;Max_cycle;Signal;HPM_P1;HPM_P2
2022/12/16 00:01:07;;;;;;;52.38;30.20;;;1.80;77.50;;;;;;5021609;28;20039;-74
2022/12/16 00:03:32;;;;;;;48.40;30.95;;;1.80;77.30;;;;;;5038209;28;20021;-73
2022/12/16 00:06:02;;;;;;;44.97;27.85;;;1.80;76.90;;;;;;5033834;28;20044;-73
2022/12/16 00:08:28;;;;;;;47.15;29.77;;;1.80;76.90;;;;;;5036274;28;20017;-75
2022/12/16 00:10:57;;;;;;;51.55;28.77;;;1.90;76.70;;;;;;5040433;28;20033;-74
2022/12/16 00:13:23;;;;;;;49.35;29.98;;;1.90;76.60;;;;;;5025980;28;20045;-74
2022/12/16 00:15:48;;;;;;;44.97;29.77;;;1.90;76.50;;;;;;5038044;28;20035;-75
2022/12/16 00:18:15;;;;;;;46.85;29.05;;;1.90;76.70;;;;;;5049663;28;20563;-74
2022/12/16 00:20:45;;;;;;;44.20;28.05;;;1.90;76.60;;;;;;5043157;28;20074;-73
2022/12/16 00:23:12;;;;;;;47.25;28.70;;;1.90;76.50;;;;;;5015384;28;20021;-73
2022/12/16 00:25:40;;;;;;;46.55;29.50;;;2.00;76.60;;;;;;5036248;28;20029;-73
2022/12/16 00:28:05;;;;;;;48.33;31.52;;;2.00;76.40;;;;;;5041058;28;20021;-73
2022/12/16 00:30:31;;;;;;;47.47;28.73;;;2.00;76.00;;;;;;5026896;28;20155;-74
2022/12/16 00:32:57;;;;;;;48.17;29.65;;;2.10;76.00;;;;;;5041131;28;20072;-73
2022/12/16 00:35:22;;;;;;;51.45;28.85;;;2.00;75.90;;;;;;5033664;28;20029;-74
2022/12/16 00:37:48;;;;;;;46.63;29.27;;;2.10;76.10;;;;;;5047558;28;20362;-74
2022/12/16 00:40:14;;;;;;;50.92;29.42;;;2.10;76.00;;;;;;5042408;28;20029;-73
2022/12/16 00:42:39;;;;;;;50.60;29.70;;;2.10;75.90;;;;;;5042205;28;20040;-73
2022/12/16 00:45:05;;;;;;;45.67;27.45;;;2.10;75.90;;;;;;5032306;28;20052;-74
2022/12/16 00:47:31;;;;;;;47.95;27.85;;;2.10;75.90;;;;;;5041915;28;20020;-73
2022/12/16 00:49:56;;;;;;;42.80;26.73;;;2.20;75.80;;;;;;5048046;28;20032;-73
2022/12/16 00:52:22;;;;;;;48.92;29.27;;;2.20;75.60;;;;;;5041293;28;20028;-74
2022/12/16 00:54:48;;;;;;;43.72;28.33;;;2.10;75.80;;;;;;5049874;28;20053;-74
2022/12/16 00:57:14;;;;;;;49.75;29.75;;;2.10;75.60;;;;;;5041272;28;20037;-72
2022/12/16 00:59:40;;;;;;;47.05;28.98;;;2.10;75.40;;;;;;5043599;28;20472;-72
2022/12/16 01:02:06;;;;;;;49.67;30.05;;;2.10;75.50;;;;;;5041078;28;20117;-73
2022/12/16 01:04:31;;;;;;;56.30;35.85;;;2.10;75.70;;;;;;5045491;28;20092;-74
2022/12/16 01:06:57;;;;;;;52.65;34.90;;;2.10;75.70;;;;;;5049385;28;20033;-74
2022/12/16 01:09:23;;;;;;;64.88;42.60;;;2.10;75.70;;;;;;5053252;28;20025;-74
2022/12/16 01:11:48;;;;;;;68.53;45.88;;;2.10;75.90;;;;;;5053530;28;20048;-72
2022/12/16 01:14:14;;;;;;;61.97;41.40;;;2.20;75.90;;;;;;5045353;28;20045;-73
2022/12/16 01:16:39;;;;;;;63.25;40.25;;;2.20;75.70;;;;;;5042248;28;20026;-73
2022/12/16 01:19:05;;;;;;;62.08;41.75;;;2.10;75.80;;;;;;5042367;28;20480;-73
2022/12/16 01:21:31;;;;;;;53.95;33.60;;;2.10;75.80;;;;;;5044331;28;20013;-74
2022/12/16 01:23:56;;;;;;;56.38;35.15;;;2.10;75.80;;;;;;5051159;28;20056;-73
2022/12/16 01:26:23;;;;;;;56.47;38.33;;;2.10;75.70;;;;;;5045464;28;20065;-73
2022/12/16 01:28:49;;;;;;;58.75;38.45;;;2.10;75.80;;;;;;5040146;28;20553;-74
2022/12/16 01:31:17;;;;;;;54.83;37.25;;;2.10;76.00;;;;;;5047879;28;20145;-74
2022/12/16 01:33:43;;;;;;;57.95;36.20;;;2.10;76.10;;;;;;5042719;28;20026;-73
2022/12/16 01:36:08;;;;;;;51.80;33.45;;;2.20;75.90;;;;;;5045665;28;20380;-74
2022/12/16 01:38:36;;;;;;;50.85;33.17;;;2.20;76.20;;;;;;5035729;28;20021;-73
2022/12/16 01:41:03;;;;;;;54.05;33.95;;;2.20;76.30;;;;;;5049508;28;20478;-73
2022/12/16 01:43:34;;;;;;;51.40;33.63;;;2.20;76.60;;;;;;5041047;28;20025;-74
2022/12/16 01:46:22;;;;;;;51.10;31.67;;;2.20;76.60;;;;;;5051866;28;20833;-74
2022/12/16 01:48:57;;;;;;;48.85;31.92;;;2.20;76.20;;;;;;5052404;28;20032;-73
2022/12/16 01:51:33;;;;;;;53.50;31.70;;;2.10;76.30;;;;;;5032758;28;20029;-73
2022/12/16 01:54:07;;;;;;;49.65;32.20;;;2.10;76.40;;;;;;5043581;28;20547;-71
2022/12/16 01:56:36;;;;;;;54.65;32.97;;;2.10;76.50;;;;;;5049091;28;20044;-73
2022/12/16 01:59:02;;;;;;;50.78;31.08;;;2.10;76.60;;;;;;5043932;28;20028;-73
2022/12/16 02:01:28;;;;;;;49.47;31.55;;;2.10;76.90;;;;;;5039839;28;20101;-72
2022/12/16 02:04:00;;;;;;;50.42;32.45;;;2.10;77.10;;;;;;5040619;28;20112;-74
2022/12/16 02:06:27;;;;;;;59.20;35.45;;;2.20;77.20;;;;;;5049534;28;20027;-74
2022/12/16 02:08:57;;;;;;;52.67;30.83;;;2.20;77.20;;;;;;5036714;28;20112;-74
2022/12/16 02:11:31;;;;;;;52.50;33.25;;;2.20;77.30;;;;;;5036608;28;20415;-74
2022/12/16 02:14:09;;;;;;;48.05;31.23;;;2.20;77.20;;;;;;5046644;28;20128;-73
2022/12/16 02:16:58;;;;;;;52.10;33.72;;;2.20;77.30;;;;;;5041777;28;20086;-74
2022/12/16 02:19:39;;;;;;;53.13;32.20;;;2.20;77.40;;;;;;5046341;28;20414;-74
2022/12/16 02:22:37;;;;;;;53.17;33.08;;;2.20;77.10;;;;;;5049790;28;20025;-75
2022/12/16 02:25:18;;;;;;;50.72;32.70;;;2.20;77.20;;;;;;5046863;28;20483;-73
2022/12/16 02:28:12;;;;;;;48.03;31.38;;;2.30;77.10;;;;;;5035262;28;20018;-74
2022/12/16 02:31:14;;;;;;;48.60;32.72;;;2.30;77.20;;;;;;5037362;28;20032;-73
2022/12/16 02:34:00;;;;;;;53.90;32.88;;;2.30;77.60;;;;;;5047222;28;20086;-73
2022/12/16 02:36:47;;;;;;;54.58;32.40;;;2.30;77.10;;;;;;5034774;28;20036;-77
2022/12/16 02:39:41;;;;;;;55.13;33.17;;;2.30;76.80;;;;;;5043521;28;20116;-73
2022/12/16 02:42:32;;;;;;;53.50;31.48;;;2.40;76.70;;;;;;5054737;28;20029;-74
2022/12/16 02:45:04;;;;;;;51.70;33.00;;;2.40;76.60;;;;;;5033474;28;20029;-72
2022/12/16 02:47:31;;;;;;;47.55;31.75;;;2.40;76.40;;;;;;5040197;28;20028;-74
2022/12/16 02:49:57;;;;;;;51.40;32.10;;;2.40;76.50;;;;;;5050448;28;20103;-74
2022/12/16 02:52:29;;;;;;;53.63;31.80;;;2.40;76.60;;;;;;5050119;28;20061;-72
2022/12/16 02:55:02;;;;;;;52.75;32.58;;;2.40;76.40;;;;;;5046396;28;20033;-74
2022/12/16 02:57:46;;;;;;;46.53;31.20;;;2.40;76.60;;;;;;5050569;28;20037;-74
2022/12/16 03:00:22;;;;;;;51.10;31.48;;;2.40;76.80;;;;;;5040787;28;20032;-74
2022/12/16 03:03:00;;;;;;;54.25;32.75;;;2.50;76.60;;;;;;5031186;28;20025;-73
2022/12/16 03:05:39;;;;;;;50.85;30.90;;;2.50;76.50;;;;;;5042649;28;20045;-73
2022/12/16 03:08:12;;;;;;;52.72;30.90;;;2.50;76.50;;;;;;5050763;28;20025;-72
2022/12/16 03:10:46;;;;;;;52.83;32.75;;;2.60;76.50;;;;;;5045851;28;20067;-72
2022/12/16 03:13:15;;;;;;;53.72;33.58;;;2.60;76.50;;;;;;5028103;28;20052;-74
2022/12/16 03:15:42;;;;;;;51.40;31.77;;;2.60;76.50;;;;;;5013258;28;20120;-75
2022/12/16 03:18:09;;;;;;;56.08;33.78;;;2.60;76.50;;;;;;5031747;28;20060;-74
2022/12/16 03:20:41;;;;;;;50.90;31.77;;;2.60;76.60;;;;;;5019351;28;20033;-72
2022/12/16 03:23:12;;;;;;;52.85;32.05;;;2.60;76.80;;;;;;5031509;28;20029;-74
2022/12/16 03:25:41;;;;;;;56.63;33.17;;;2.50;76.70;;;;;;5031396;28;20033;-73
2022/12/16 03:28:26;;;;;;;49.35;32.85;;;2.50;76.80;;;;;;5018463;28;20039;-73
2022/12/16 03:31:03;;;;;;;49.78;30.58;;;2.60;77.30;;;;;;5029629;28;20076;-74
2022/12/16 03:33:37;;;;;;;54.28;32.38;;;2.60;77.40;;;;;;5020589;28;20017;-73
2022/12/16 03:36:13;;;;;;;55.30;35.65;;;2.60;77.70;;;;;;5007142;28;20026;-74
2022/12/16 03:38:40;;;;;;;50.65;32.72;;;2.50;77.90;;;;;;5030068;28;20041;-74
2022/12/16 03:41:06;;;;;;;52.03;33.70;;;2.50;78.00;;;;;;5015340;28;20388;-74
2022/12/16 03:43:32;;;;;;;56.55;34.90;;;2.50;78.10;;;;;;5013666;28;20109;-74
2022/12/16 03:46:03;;;;;;;48.90;33.67;;;2.50;78.30;;;;;;5021837;28;20488;-73
2022/12/16 03:48:29;;;;;;;65.95;34.72;;;2.50;78.40;;;;;;5023244;28;20032;-74
2022/12/16 03:50:55;;;;;;;60.30;36.33;;;2.50;78.80;;;;;;5025394;28;20025;-73
2022/12/16 03:53:25;;;;;;;64.32;37.35;;;2.40;79.30;;;;;;5028446;28;20033;-74
2022/12/16 03:55:51;;;;;;;66.07;37.55;;;2.40;80.00;;;;;;5016608;28;20493;-73
2022/12/16 03:58:17;;;;;;;66.53;39.10;;;2.40;80.90;;;;;;5026020;28;20025;-74
2022/12/16 04:00:43;;;;;;;74.15;40.67;;;2.40;81.30;;;;;;5015476;28;20059;-72
2022/12/16 04:03:08;;;;;;;70.97;37.50;;;2.30;81.90;;;;;;5024491;28;20325;-71
2022/12/16 04:05:35;;;;;;;71.18;39.55;;;2.30;82.40;;;;;;5020710;28;20017;-73
2022/12/16 04:08:00;;;;;;;72.05;39.72;;;2.30;82.60;;;;;;5019996;28;20052;-73
2022/12/16 04:24:19;;;;;;;86.85;44.35;;;2.40;84.30;;;;;;5048579;28;20098;-73
2022/12/16 04:29:33;;;;;;;79.53;43.78;;;2.50;85.00;;;;;;5049377;28;20757;-72
2022/12/16 04:32:00;;;;;;;83.57;44.30;;;2.50;85.20;;;;;;5051119;28;20037;-74
2022/12/16 04:34:26;;;;;;;78.88;41.55;;;2.50;85.20;;;;;;5041431;28;20021;-73
